Time;durP1;ratioP1;P1;durP2;ratioP2;P2;SDS_P1;SDS_P2;PMS_P1;PMS_P2;Temp;Humidity;BMP_temperature;BMP_pressure;BME280_temperature;BME280_humidity;BME280_pressure;Samples;Min_cycle;Max_cycle;Signal;HPM_P1;HPM_P2
2023/08/20 00:00:18;;;;;;;7.85;5.80;;;;;;;;;;5015937;28;20192;-52
2023/08/20 00:02:46;;;;;;;12.10;6.80;;;;;;;;;;5015539;28;20496;-52
2023/08/20 00:05:12;;;;;;;12.75;6.45;;;;;;;;;;5015996;28;20557;-52
2023/08/20 00:07:38;;;;;;;12.77;6.78;;;;;;;;;;5016791;28;20586;-52
2023/08/20 00:10:04;;;;;;;8.93;6.35;;;;;;;;;;5016212;28;20681;-52
2023/08/20 00:12:31;;;;;;;8.40;6.15;;;;;;;;;;5016550;28;20283;-52
2023/08/20 00:15:06;;;;;;;7.43;6.40;;;;;;;;;;5015914;28;20168;-52
2023/08/20 00:17:36;;;;;;;8.65;6.78;;;;;;;;;;5016278;28;20180;-52
2023/08/20 00:20:12;;;;;;;8.65;6.53;;;;;;;;;;5015997;28;20211;-52
2023/08/20 00:22:47;;;;;;;6.82;6.13;;;;;;;;;;5016292;28;20461;-52
2023/08/20 00:25:14;;;;;;;6.88;6.18;;;;;;;;;;5016568;28;20176;-52
2023/08/20 00:27:40;;;;;;;8.18;5.88;;;;;;;;;;5016151;28;20568;-52
2023/08/20 00:30:06;;;;;;;8.60;5.93;;;;;;;;;;5015621;28;20675;-52
2023/08/20 00:32:32;;;;;;;8.82;6.22;;;;;;;;;;5016197;28;20268;-52
2023/08/20 00:34:58;;;;;;;7.65;6.13;;;;;;;;;;5015438;28;20272;-52
2023/08/20 00:37:25;;;;;;;10.50;6.05;;;;;;;;;;5016171;28;20459;-52
2023/08/20 00:39:54;;;;;;;9.48;6.20;;;;;;;;;;5016078;28;20176;-53
2023/08/20 00:42:20;;;;;;;10.10;5.70;;;;;;;;;;5015592;28;20250;-52
2023/08/20 00:44:46;;;;;;;8.35;6.38;;;;;;;;;;5015081;28;20200;-52
2023/08/20 00:47:13;;;;;;;8.10;6.43;;;;;;;;;;5015691;28;20216;-52
2023/08/20 00:49:39;;;;;;;9.60;6.22;;;;;;;;;;5015733;28;20180;-52
2023/08/20 00:52:07;;;;;;;8.45;5.90;;;;;;;;;;5015242;28;20459;-52
2023/08/20 00:54:34;;;;;;;11.02;6.07;;;;;;;;;;5015214;28;20279;-52
2023/08/20 00:57:00;;;;;;;6.95;5.95;;;;;;;;;;5015289;28;20208;-52
2023/08/20 00:59:26;;;;;;;8.25;5.82;;;;;;;;;;5016191;28;20468;-52
2023/08/20 01:01:52;;;;;;;6.40;5.70;;;;;;;;;;5015234;28;20205;-52
2023/08/20 01:04:19;;;;;;;11.82;6.47;;;;;;;;;;5015130;28;20270;-52
2023/08/20 01:07:08;;;;;;;8.48;5.80;;;;;;;;;;5015870;28;20164;-52
2023/08/20 01:09:48;;;;;;;7.47;6.07;;;;;;;;;;5015186;28;20268;-52
2023/08/20 01:12:14;;;;;;;9.25;5.65;;;;;;;;;;5015319;28;20425;-52
2023/08/20 01:14:40;;;;;;;8.30;5.88;;;;;;;;;;5014654;28;20281;-52
2023/08/20 01:17:06;;;;;;;6.57;5.60;;;;;;;;;;5015454;28;20469;-52
2023/08/20 01:19:32;;;;;;;7.63;6.43;;;;;;;;;;5014938;28;20200;-52
2023/08/20 01:22:17;;;;;;;7.55;5.82;;;;;;;;;;5013995;28;20607;-52
2023/08/20 01:25:01;;;;;;;8.20;6.03;;;;;;;;;;5014580;28;20471;-52
2023/08/20 01:27:37;;;;;;;8.25;5.57;;;;;;;;;;5015387;28;20272;-52
2023/08/20 01:30:03;;;;;;;10.27;6.38;;;;;;;;;;5014540;28;20176;-52
2023/08/20 01:32:29;;;;;;;7.78;6.18;;;;;;;;;;5014809;28;20488;-53
2023/08/20 01:34:56;;;;;;;7.70;6.03;;;;;;;;;;5014776;28;20544;-52
2023/08/20 01:37:22;;;;;;;8.20;6.05;;;;;;;;;;5014983;28;20192;-52
2023/08/20 01:39:48;;;;;;;7.55;6.30;;;;;;;;;;5014804;28;20593;-52
2023/08/20 01:42:14;;;;;;;8.80;5.95;;;;;;;;;;5013828;28;20287;-52
2023/08/20 01:44:40;;;;;;;6.45;5.70;;;;;;;;;;5014611;28;20267;-52
2023/08/20 01:47:06;;;;;;;7.63;6.32;;;;;;;;;;5015011;28;20224;-52
2023/08/20 01:49:32;;;;;;;8.57;6.32;;;;;;;;;;5014780;28;20586;-52
2023/08/20 01:51:57;;;;;;;6.85;5.90;;;;;;;;;;5014668;28;20238;-52
2023/08/20 01:54:23;;;;;;;11.77;5.95;;;;;;;;;;5014549;28;20192;-52
2023/08/20 01:56:49;;;;;;;8.25;5.75;;;;;;;;;;5014599;28;20267;-52
2023/08/20 01:59:15;;;;;;;9.32;6.38;;;;;;;;;;5018455;28;20318;-52
2023/08/20 02:01:41;;;;;;;8.35;6.13;;;;;;;;;;5018178;28;20237;-52
2023/08/20 02:04:07;;;;;;;7.38;6.05;;;;;;;;;;5014820;28;20599;-52
2023/08/20 02:06:33;;;;;;;7.65;6.00;;;;;;;;;;5018948;28;20192;-52
2023/08/20 02:08:59;;;;;;;8.02;5.93;;;;;;;;;;5018924;28;20185;-52
2023/08/20 02:11:25;;;;;;;6.28;5.45;;;;;;;;;;5018296;28;20188;-52
2023/08/20 02:13:51;;;;;;;8.23;6.30;;;;;;;;;;5018144;28;20304;-52
2023/08/20 02:16:17;;;;;;;8.50;5.78;;;;;;;;;;5018609;28;20193;-52
2023/08/20 02:18:42;;;;;;;7.30;6.50;;;;;;;;;;5018605;28;20238;-52
2023/08/20 02:21:08;;;;;;;8.75;6.28;;;;;;;;;;5018079;28;20231;-52
2023/08/20 02:23:34;;;;;;;7.35;6.22;;;;;;;;;;5017998;28;20192;-52
2023/08/20 02:26:00;;;;;;;7.80;5.88;;;;;;;;;;5018636;28;20177;-53
2023/08/20 02:28:26;;;;;;;6.65;5.78;;;;;;;;;;5018066;28;20259;-52
2023/08/20 02:30:52;;;;;;;7.18;5.20;;;;;;;;;;5017992;28;20185;-52
2023/08/20 02:33:18;;;;;;;8.50;6.47;;;;;;;;;;5017907;28;20184;-52
2023/08/20 02:35:44;;;;;;;7.60;5.78;;;;;;;;;;5018463;28;20199;-52
2023/08/20 02:38:11;;;;;;;6.60;5.72;;;;;;;;;;5018061;28;20276;-52
2023/08/20 02:40:41;;;;;;;7.15;5.90;;;;;;;;;;5017670;28;20180;-52
2023/08/20 02:43:07;;;;;;;8.60;5.90;;;;;;;;;;5017282;28;20599;-52
2023/08/20 02:45:33;;;;;;;6.60;5.63;;;;;;;;;;5018064;28;20199;-52
2023/08/20 02:47:59;;;;;;;8.07;5.63;;;;;;;;;;5018163;28;20177;-52
2023/08/20 02:50:24;;;;;;;6.40;5.55;;;;;;;;;;5017587;28;20566;-53
2023/08/20 02:52:50;;;;;;;6.50;5.60;;;;;;;;;;5016831;28;20188;-52
2023/08/20 02:55:16;;;;;;;9.13;5.45;;;;;;;;;;5033478;28;20184;-52
2023/08/20 02:57:42;;;;;;;7.00;5.55;;;;;;;;;;5017657;28;20505;-52
2023/08/20 03:00:11;;;;;;;7.53;5.63;;;;;;;;;;5018165;28;20195;-52
2023/08/20 03:02:37;;;;;;;8.23;5.68;;;;;;;;;;5032059;28;20822;-52
2023/08/20 03:05:05;;;;;;;7.55;5.45;;;;;;;;;;5017158;28;20180;-52
2023/08/20 03:07:32;;;;;;;5.90;5.07;;;;;;;;;;5017922;28;20187;-52
2023/08/20 03:09:58;;;;;;;7.45;5.13;;;;;;;;;;5016926;28;20177;-52
2023/08/20 03:12:23;;;;;;;6.72;6.03;;;;;;;;;;5017276;28;20851;-52
2023/08/20 03:14:49;;;;;;;6.18;5.63;;;;;;;;;;5016694;28;20299;-52
2023/08/20 03:17:15;;;;;;;7.88;5.43;;;;;;;;;;5017325;28;20533;-52
2023/08/20 03:19:54;;;;;;;8.00;5.70;;;;;;;;;;5017417;28;20195;-52
2023/08/20 03:22:20;;;;;;;5.90;5.35;;;;;;;;;;5017733;28;20575;-52
2023/08/20 03:24:46;;;;;;;8.82;5.90;;;;;;;;;;5016310;28;20250;-52
2023/08/20 03:27:12;;;;;;;8.32;5.57;;;;;;;;;;5017185;28;20227;-52
2023/08/20 03:29:38;;;;;;;8.80;5.93;;;;;;;;;;5017284;28;20188;-52
2023/08/20 03:32:04;;;;;;;9.65;5.85;;;;;;;;;;5017256;28;20243;-52
2023/08/20 03:34:30;;;;;;;8.93;6.15;;;;;;;;;;5016482;28;20196;-52
2023/08/20 03:36:56;;;;;;;7.30;5.55;;;;;;;;;;5017306;28;20230;-52
2023/08/20 03:39:22;;;;;;;7.25;5.53;;;;;;;;;;5016840;28;20180;-52
2023/08/20 03:41:48;;;;;;;6.68;5.82;;;;;;;;;;5017174;28;20208;-52
2023/08/20 03:44:14;;;;;;;6.32;5.47;;;;;;;;;;5016234;28;20188;-52
2023/08/20 03:46:40;;;;;;;6.20;5.60;;;;;;;;;;5016554;28;20191;-52
2023/08/20 03:49:06;;;;;;;10.45;6.03;;;;;;;;;;5024849;28;20185;-52
2023/08/20 03:51:31;;;;;;;7.13;5.95;;;;;;;;;;5016697;28;20192;-52
2023/08/20 03:53:57;;;;;;;8.73;5.75;;;;;;;;;;5014954;28;20663;-52
2023/08/20 03:56:23;;;;;;;7.00;6.15;;;;;;;;;;5016817;28;20492;-52
2023/08/20 03:58:49;;;;;;;7.18;5.97;;;;;;;;;;5032508;28;20715;-52
2023/08/20 04:01:15;;;;;;;6.03;5.43;;;;;;;;;;5016167;28;20208;-52
2023/08/20 04:03:41;;;;;;;10.55;6.00;;;;;;;;;;5015513;28;20184;-52
2023/08/20 04:06:07;;;;;;;8.23;5.40;;;;;;;;;;5016078;28;20215;-52
2023/08/20 04:08:33;;;;;;;7.57;5.90;;;;;;;;;;5016310;28;20187;-52
2023/08/20 04:10:59;;;;;;;8.48;5.55;;;;;;;;;;5016562;28;20227;-52
2023/08/20 04:13:25;;;;;;;7.72;5.30;;;;;;;;;;5016028;28;20208;-53
2023/08/20 04:15:51;;;;;;;6.25;5.65;;;;;;;;;;5015829;28;20198;-52
2023/08/20 04:18:17;;;;;;;9.45;5.97;;;;;;;;;;5016129;28;20459;-52
2023/08/20 04:20:43;;;;;;;7.30;5.95;;;;;;;;;;5015349;28;20192;-52
2023/08/20 04:23:09;;;;;;;7.53;5.78;;;;;;;;;;5015372;28;20212;-52
2023/08/20 04:25:35;;;;;;;7.93;5.50;;;;;;;;;;5016183;28;20188;-52
2023/08/20 04:28:01;;;;;;;5.50;4.90;;;;;;;;;;5016381;28;20203;-52
2023/08/20 04:30:27;;;;;;;6.85;5.22;;;;;;;;;;5015805;28;20451;-52
2023/08/20 04:32:53;;;;;;;8.00;5.10;;;;;;;;;;5015931;28;20640;-52
2023/08/20 04:35:19;;;;;;;7.80;5.05;;;;;;;;;;5015749;28;20193;-52
2023/08/20 04:37:45;;;;;;;7.28;5.15;;;;;;;;;;5031717;28;20267;-52
2023/08/20 04:40:11;;;;;;;5.60;5.10;;;;;;;;;;5015655;28;20192;-53
2023/08/20 04:42:37;;;;;;;6.20;5.25;;;;;;;;;;5015356;28;20211;-52
2023/08/20 04:45:03;;;;;;;7.85;4.90;;;;;;;;;;5030799;28;20288;-53
2023/08/20 04:47:29;;;;;;;7.93;5.60;;;;;;;;;;5016201;28;20192;-52
2023/08/20 04:49:55;;;;;;;9.32;5.78;;;;;;;;;;5015152;28;20211;-52
2023/08/20 04:52:21;;;;;;;7.05;5.53;;;;;;;;;;5016027;28;20192;-52
2023/08/20 04:54:48;;;;;;;9.93;6.13;;;;;;;;;;5014498;28;20250;-52
2023/08/20 04:57:14;;;;;;;7.22;6.07;;;;;;;;;;5015473;28;20188;-52
2023/08/20 04:59:42;;;;;;;9.50;6.63;;;;;;;;;;5015561;28;20605;-52
2023/08/20 05:02:08;;;;;;;8.05;5.68;;;;;;;;;;5015899;28;20268;-52
2023/08/20 05:04:34;;;;;;;9.30;6.40;;;;;;;;;;5014745;28;20182;-52
2023/08/20 05:07:00;;;;;;;8.30;6.35;;;;;;;;;;5015432;28;20452;-52
2023/08/20 05:09:26;;;;;;;8.43;6.88;;;;;;;;;;5015665;28;20467;-52
2023/08/20 05:11:52;;;;;;;11.13;6.15;;;;;;;;;;5015330;28;20555;-52
2023/08/20 05:14:18;;;;;;;12.63;6.70;;;;;;;;;;5014768;28;20188;-52
2023/08/20 05:16:44;;;;;;;9.05;6.50;;;;;;;;;;5015424;28;20191;-52
2023/08/20 05:19:10;;;;;;;11.80;7.65;;;;;;;;;;5015401;28;20187;-52
2023/08/20 05:21:36;;;;;;;8.77;6.80;;;;;;;;;;5015077;28;20211;-52
2023/08/20 05:24:02;;;;;;;8.57;6.78;;;;;;;;;;5014495;28;20186;-52
2023/08/20 05:26:28;;;;;;;8.63;6.85;;;;;;;;;;5015637;28;20176;-52
2023/08/20 05:28:54;;;;;;;9.93;6.95;;;;;;;;;;5015276;28;20912;-52
2023/08/20 05:31:19;;;;;;;11.63;8.02;;;;;;;;;;5014595;28;20212;-52
2023/08/20 05:33:45;;;;;;;10.63;7.53;;;;;;;;;;5013960;28;20509;-52
2023/08/20 05:36:11;;;;;;;12.35;8.15;;;;;;;;;;5015254;28;20263;-52
2023/08/20 05:38:37;;;;;;;11.38;7.57;;;;;;;;;;5014768;28;20267;-52
2023/08/20 05:41:03;;;;;;;12.27;7.68;;;;;;;;;;5014549;28;20180;-52
2023/08/20 05:43:29;;;;;;;11.35;7.90;;;;;;;;;;5013807;28;20207;-52
2023/08/20 05:45:55;;;;;;;11.07;7.93;;;;;;;;;;5014788;28;20226;-52
2023/08/20 05:48:21;;;;;;;13.48;7.55;;;;;;;;;;5014900;28;20200;-52
2023/08/20 05:50:47;;;;;;;9.27;6.75;;;;;;;;;;5014980;28;20637;-52
2023/08/20 05:53:13;;;;;;;8.95;7.57;;;;;;;;;;5014206;28;20235;-52
2023/08/20 05:55:39;;;;;;;10.23;7.03;;;;;;;;;;5014535;28;20651;-52
2023/08/20 05:58:05;;;;;;;11.13;6.45;;;;;;;;;;5013864;28;20630;-52
2023/08/20 06:00:31;;;;;;;12.25;6.82;;;;;;;;;;5014287;28;20180;-52
2023/08/20 06:02:57;;;;;;;9.75;7.65;;;;;;;;;;5013888;28;20204;-52
2023/08/20 06:05:23;;;;;;;8.57;7.05;;;;;;;;;;5014050;28;20230;-52
2023/08/20 06:07:49;;;;;;;9.95;6.72;;;;;;;;;;5013691;28;20295;-52
2023/08/20 06:10:15;;;;;;;8.65;6.78;;;;;;;;;;5014321;28;20204;-52
2023/08/20 06:12:41;;;;;;;7.75;6.32;;;;;;;;;;5014279;28;20196;-52
2023/08/20 06:15:08;;;;;;;10.57;6.78;;;;;;;;;;5011803;28;20180;-52
2023/08/20 06:17:34;;;;;;;10.13;6.90;;;;;;;;;;5013713;28;20184;-52
2023/08/20 06:20:00;;;;;;;8.13;7.10;;;;;;;;;;5014146;28;20239;-52
2023/08/20 06:22:26;;;;;;;8.25;6.82;;;;;;;;;;5014356;28;20669;-52
2023/08/20 06:24:52;;;;;;;12.50;7.43;;;;;;;;;;5013006;28;20608;-52
2023/08/20 06:27:18;;;;;;;13.00;8.18;;;;;;;;;;5014722;28;20250;-52
2023/08/20 06:29:44;;;;;;;11.95;8.15;;;;;;;;;;5014142;28;20176;-52
2023/08/20 06:32:10;;;;;;;12.40;8.05;;;;;;;;;;5014158;28;20437;-52
2023/08/20 06:34:36;;;;;;;10.10;8.23;;;;;;;;;;5013839;28;20189;-52
2023/08/20 06:37:02;;;;;;;11.77;8.80;;;;;;;;;;5014596;28;20185;-52
2023/08/20 06:39:28;;;;;;;12.23;9.02;;;;;;;;;;5013976;28;20243;-52
2023/08/20 06:41:54;;;;;;;12.38;9.07;;;;;;;;;;5013824;28;20208;-52
2023/08/20 06:44:20;;;;;;;11.32;9.05;;;;;;;;;;5016176;28;20185;-52
2023/08/20 06:46:46;;;;;;;13.07;9.75;;;;;;;;;;5017993;28;20181;-50
2023/08/20 06:49:12;;;;;;;11.32;9.13;;;;;;;;;;5018291;28;20184;-51
2023/08/20 06:51:38;;;;;;;13.18;9.65;;;;;;;;;;5017727;28;20234;-50
2023/08/20 06:54:06;;;;;;;15.27;10.18;;;;;;;;;;5015632;28;20247;-50
2023/08/20 06:56:34;;;;;;;12.27;9.40;;;;;;;;;;5018041;28;20594;-50
2023/08/20 06:59:03;;;;;;;14.82;9.85;;;;;;;;;;5017811;28;20213;-50
2023/08/20 07:01:28;;;;;;;12.68;9.45;;;;;;;;;;5017575;28;20200;-50
2023/08/20 07:03:54;;;;;;;12.18;9.90;;;;;;;;;;5017139;28;20172;-50
2023/08/20 07:06:20;;;;;;;12.20;10.50;;;;;;;;;;5017431;28;20179;-50
2023/08/20 07:08:46;;;;;;;14.07;10.30;;;;;;;;;;5017976;28;20191;-50
2023/08/20 07:11:12;;;;;;;14.10;10.35;;;;;;;;;;5016366;28;20188;-50
2023/08/20 07:13:38;;;;;;;14.73;9.80;;;;;;;;;;5015727;28;20668;-50
2023/08/20 07:16:04;;;;;;;12.02;9.90;;;;;;;;;;5016294;28;20192;-50
2023/08/20 07:18:30;;;;;;;10.65;9.55;;;;;;;;;;5016129;28;20176;-50
2023/08/20 07:20:56;;;;;;;13.13;9.55;;;;;;;;;;5015506;28;20192;-50
2023/08/20 07:23:23;;;;;;;11.88;8.88;;;;;;;;;;5015185;28;20266;-50
2023/08/20 07:25:51;;;;;;;12.07;9.90;;;;;;;;;;5016641;28;20252;-50
2023/08/20 07:28:26;;;;;;;12.43;9.45;;;;;;;;;;5017207;28;20283;-50
2023/08/20 07:30:52;;;;;;;12.07;10.02;;;;;;;;;;5017416;28;20246;-50
2023/08/20 07:33:18;;;;;;;11.98;9.55;;;;;;;;;;5016455;28;20552;-50
2023/08/20 07:35:44;;;;;;;15.00;9.10;;;;;;;;;;5016647;28;20284;-50
2023/08/20 07:38:10;;;;;;;11.43;9.02;;;;;;;;;;5016134;28;20645;-50
2023/08/20 07:40:36;;;;;;;13.10;10.07;;;;;;;;;;5016871;28;20613;-50
2023/08/20 07:43:02;;;;;;;15.07;9.88;;;;;;;;;;5016604;28;20645;-50
2023/08/20 07:45:28;;;;;;;12.93;9.45;;;;;;;;;;5016946;28;20207;-50
2023/08/20 07:47:54;;;;;;;11.55;9.18;;;;;;;;;;5016973;28;20207;-50
2023/08/20 07:50:20;;;;;;;17.25;10.13;;;;;;;;;;5015839;28;20208;-50
2023/08/20 07:52:46;;;;;;;12.95;8.63;;;;;;;;;;5016351;28;20180;-50
2023/08/20 07:55:12;;;;;;;13.55;9.10;;;;;;;;;;5015444;28;20272;-50
2023/08/20 07:57:38;;;;;;;12.13;9.73;;;;;;;;;;5016945;28;20200;-50
2023/08/20 08:00:04;;;;;;;11.25;8.45;;;;;;;;;;5016816;28;20196;-50
2023/08/20 08:02:30;;;;;;;14.50;7.95;;;;;;;;;;5016009;28;20262;-50
2023/08/20 08:04:56;;;;;;;10.13;7.97;;;;;;;;;;5013249;28;20817;-50
2023/08/20 08:07:22;;;;;;;14.25;8.10;;;;;;;;;;5015746;28;20185;-50
2023/08/20 08:09:48;;;;;;;9.95;8.00;;;;;;;;;;5016531;28;20259;-50
2023/08/20 08:12:14;;;;;;;10.32;8.10;;;;;;;;;;5015622;28;20259;-50
2023/08/20 08:14:40;;;;;;;11.65;8.60;;;;;;;;;;5015733;28;20616;-50
2023/08/20 08:17:07;;;;;;;15.18;8.20;;;;;;;;;;5015492;28;20284;-50
2023/08/20 08:19:33;;;;;;;10.80;8.45;;;;;;;;;;5015593;28;20180;-50
2023/08/20 08:21:59;;;;;;;10.63;7.88;;;;;;;;;;5016349;28;20208;-50
2023/08/20 08:24:25;;;;;;;10.40;7.35;;;;;;;;;;5015586;28;20180;-50
2023/08/20 08:26:51;;;;;;;13.32;8.15;;;;;;;;;;5016391;28;20176;-50
2023/08/20 08:29:17;;;;;;;12.85;8.00;;;;;;;;;;5015694;28;20560;-50
2023/08/20 08:31:42;;;;;;;10.05;8.10;;;;;;;;;;5014413;28;20180;-49
2023/08/20 08:34:08;;;;;;;11.20;7.63;;;;;;;;;;5013864;28;20192;-50
2023/08/20 08:36:34;;;;;;;13.40;8.38;;;;;;;;;;5015131;28;20211;-50
2023/08/20 08:39:00;;;;;;;9.35;8.27;;;;;;;;;;5015960;28;20189;-50
2023/08/20 08:41:28;;;;;;;12.85;7.97;;;;;;;;;;5015542;28;20191;-50
2023/08/20 08:43:57;;;;;;;13.52;8.25;;;;;;;;;;5014679;28;20262;-50
2023/08/20 08:46:24;;;;;;;14.90;7.35;;;;;;;;;;5015653;28;20185;-50
2023/08/20 08:48:50;;;;;;;11.30;7.90;;;;;;;;;;5016981;28;20183;-50
2023/08/20 08:51:16;;;;;;;11.40;7.88;;;;;;;;;;5015766;28;20296;-50
2023/08/20 08:53:44;;;;;;;15.18;7.47;;;;;;;;;;5014623;28;20180;-50
2023/08/20 08:56:10;;;;;;;13.70;7.55;;;;;;;;;;5012997;28;20236;-50
2023/08/20 08:58:36;;;;;;;11.05;8.50;;;;;;;;;;5015309;28;20326;-50
2023/08/20 09:01:03;;;;;;;10.82;7.90;;;;;;;;;;5015259;28;20256;-50
2023/08/20 09:03:28;;;;;;;12.65;9.07;;;;;;;;;;5014584;28;20214;-50
2023/08/20 09:06:03;;;;;;;9.90;8.65;;;;;;;;;;5015132;28;20176;-50
2023/08/20 09:08:29;;;;;;;10.48;8.85;;;;;;;;;;5015994;28;20175;-50
2023/08/20 09:10:56;;;;;;;10.13;8.48;;;;;;;;;;5015722;28;20195;-50
2023/08/20 09:13:26;;;;;;;13.48;8.80;;;;;;;;;;5013838;28;20495;-50
2023/08/20 09:15:54;;;;;;;9.27;8.35;;;;;;;;;;5009854;28;20642;-50
2023/08/20 09:18:21;;;;;;;11.85;8.52;;;;;;;;;;5015387;28;20212;-50
2023/08/20 09:20:50;;;;;;;11.23;9.43;;;;;;;;;;5015064;28;20176;-50
2023/08/20 09:23:16;;;;;;;12.98;8.73;;;;;;;;;;5014821;28;20235;-50
2023/08/20 09:25:43;;;;;;;11.88;8.52;;;;;;;;;;5015123;28;20552;-50
2023/08/20 09:28:09;;;;;;;9.02;7.85;;;;;;;;;;5015181;28;20208;-50
2023/08/20 09:30:35;;;;;;;11.05;8.18;;;;;;;;;;5015285;28;20176;-50
2023/08/20 09:33:11;;;;;;;12.68;9.38;;;;;;;;;;5015036;28;20552;-50
2023/08/20 09:35:37;;;;;;;9.73;8.32;;;;;;;;;;5014159;28;20504;-50
2023/08/20 09:38:04;;;;;;;16.48;9.00;;;;;;;;;;5015112;28;20267;-50
2023/08/20 09:40:30;;;;;;;12.45;9.55;;;;;;;;;;5013673;28;20197;-50
2023/08/20 09:42:57;;;;;;;11.57;9.05;;;;;;;;;;5013687;28;20290;-50
2023/08/20 09:45:25;;;;;;;11.43;8.88;;;;;;;;;;5014620;28;20184;-50
2023/08/20 09:47:53;;;;;;;10.23;9.05;;;;;;;;;;5014431;28;20264;-50
2023/08/20 09:50:20;;;;;;;13.20;9.27;;;;;;;;;;5014977;28;20180;-50
2023/08/20 09:52:54;;;;;;;13.02;9.05;;;;;;;;;;5030375;28;20184;-50
2023/08/20 09:55:22;;;;;;;11.88;8.55;;;;;;;;;;5014188;28;20199;-50
2023/08/20 09:57:48;;;;;;;13.90;9.60;;;;;;;;;;5014613;28;20192;-50
2023/08/20 10:00:14;;;;;;;16.27;8.90;;;;;;;;;;5015012;28;20196;-50
2023/08/20 10:02:43;;;;;;;10.38;8.73;;;;;;;;;;5006932;28;20247;-50
2023/08/20 10:05:10;;;;;;;12.77;8.27;;;;;;;;;;5012364;28;20192;-50
2023/08/20 10:07:36;;;;;;;10.30;8.88;;;;;;;;;;5014373;28;20203;-50
2023/08/20 10:10:04;;;;;;;11.63;9.10;;;;;;;;;;5012818;28;20431;-50
2023/08/20 10:12:30;;;;;;;12.85;9.00;;;;;;;;;;5029626;28;20181;-50
2023/08/20 10:14:57;;;;;;;12.07;8.95;;;;;;;;;;5008791;28;20207;-50
2023/08/20 10:17:24;;;;;;;9.82;8.57;;;;;;;;;;5012999;28;20191;-50
2023/08/20 10:19:51;;;;;;;13.45;9.43;;;;;;;;;;5016334;28;20185;-50
2023/08/20 10:22:17;;;;;;;10.45;9.23;;;;;;;;;;5018580;28;20346;-50
2023/08/20 10:24:50;;;;;;;9.80;8.80;;;;;;;;;;5018364;28;20203;-50
2023/08/20 10:27:27;;;;;;;10.45;9.27;;;;;;;;;;5017436;28;20200;-50
2023/08/20 10:29:54;;;;;;;9.88;8.52;;;;;;;;;;5018596;28;20172;-50
2023/08/20 10:32:20;;;;;;;9.63;8.65;;;;;;;;;;5018581;28;20267;-50
2023/08/20 10:34:52;;;;;;;10.32;9.23;;;;;;;;;;5018255;28;20180;-50
2023/08/20 10:37:26;;;;;;;10.38;9.07;;;;;;;;;;5018023;28;20188;-50
2023/08/20 10:39:58;;;;;;;10.68;8.85;;;;;;;;;;5018555;28;20254;-50
2023/08/20 10:42:28;;;;;;;10.68;9.00;;;;;;;;;;5017508;28;20204;-50
2023/08/20 10:44:57;;;;;;;14.15;9.30;;;;;;;;;;5017605;28;20184;-50
2023/08/20 10:47:25;;;;;;;11.52;9.38;;;;;;;;;;5022393;28;20270;-50
2023/08/20 10:49:52;;;;;;;10.80;8.48;;;;;;;;;;5017352;28;20181;-50
2023/08/20 10:52:19;;;;;;;10.45;8.98;;;;;;;;;;5017446;28;20751;-50
2023/08/20 10:54:45;;;;;;;10.30;8.75;;;;;;;;;;5017509;28;20203;-50
2023/08/20 10:57:10;;;;;;;10.70;9.15;;;;;;;;;;5017682;28;20481;-50
2023/08/20 10:59:39;;;;;;;12.27;8.85;;;;;;;;;;5017992;28;20192;-50
2023/08/20 11:02:08;;;;;;;13.70;8.85;;;;;;;;;;5033504;28;20582;-50
2023/08/20 11:04:34;;;;;;;16.30;9.10;;;;;;;;;;5017322;28;20196;-49
2023/08/20 11:07:00;;;;;;;12.73;8.98;;;;;;;;;;5017745;28;20169;-50
2023/08/20 11:09:28;;;;;;;12.48;8.73;;;;;;;;;;5017490;28;20191;-50
2023/08/20 11:11:53;;;;;;;10.40;8.68;;;;;;;;;;5018106;28;20181;-50
2023/08/20 11:14:20;;;;;;;10.07;8.88;;;;;;;;;;5033167;28;20188;-50
2023/08/20 11:16:46;;;;;;;11.60;9.23;;;;;;;;;;5017389;28;20188;-50
2023/08/20 11:19:13;;;;;;;9.50;8.50;;;;;;;;;;5017899;28;20278;-50
2023/08/20 11:21:39;;;;;;;9.98;8.68;;;;;;;;;;5017721;28;22195;-50
2023/08/20 11:24:09;;;;;;;9.73;8.73;;;;;;;;;;5016556;28;20283;-50
2023/08/20 11:26:35;;;;;;;10.13;8.65;;;;;;;;;;5017515;28;20271;-50
2023/08/20 11:29:02;;;;;;;11.43;8.35;;;;;;;;;;5017636;28;20558;-50
2023/08/20 11:31:30;;;;;;;9.88;8.90;;;;;;;;;;5017151;28;20562;-50
2023/08/20 11:33:57;;;;;;;14.15;9.38;;;;;;;;;;5015988;28;20188;-50
2023/08/20 11:36:23;;;;;;;11.25;8.07;;;;;;;;;;5016921;28;20180;-50
2023/08/20 11:38:51;;;;;;;11.75;9.45;;;;;;;;;;5017420;28;20230;-50
2023/08/20 11:41:18;;;;;;;9.27;8.10;;;;;;;;;;5016926;28;20267;-51
2023/08/20 11:43:44;;;;;;;11.10;8.95;;;;;;;;;;5016404;28;20227;-50
2023/08/20 11:46:16;;;;;;;9.65;8.65;;;;;;;;;;5016551;28;20176;-50
2023/08/20 11:49:01;;;;;;;9.70;8.80;;;;;;;;;;5017149;28;20505;-50
2023/08/20 11:51:27;;;;;;;11.82;8.90;;;;;;;;;;5017015;28;20184;-50
2023/08/20 11:53:53;;;;;;;13.52;9.02;;;;;;;;;;5016364;28;20180;-50
2023/08/20 11:56:19;;;;;;;10.30;9.05;;;;;;;;;;5016796;28;20272;-50
2023/08/20 11:58:50;;;;;;;11.98;9.13;;;;;;;;;;5017041;28;20279;-50
2023/08/20 12:01:16;;;;;;;9.52;8.63;;;;;;;;;;5016772;28;20180;-50
2023/08/20 12:03:44;;;;;;;11.80;9.43;;;;;;;;;;5016041;28;20218;-50
2023/08/20 12:06:20;;;;;;;10.55;9.00;;;;;;;;;;5016478;28;20180;-49
2023/08/20 12:08:45;;;;;;;10.35;8.90;;;;;;;;;;5017063;28;20187;-49
2023/08/20 12:11:11;;;;;;;10.43;8.82;;;;;;;;;;5016399;28;20200;-49
2023/08/20 12:13:37;;;;;;;11.88;8.90;;;;;;;;;;5016172;28;20192;-50
2023/08/20 12:16:03;;;;;;;10.13;8.95;;;;;;;;;;5016238;28;20184;-50
2023/08/20 12:18:29;;;;;;;13.65;9.05;;;;;;;;;;5015732;28;20210;-50
2023/08/20 12:20:55;;;;;;;9.93;8.93;;;;;;;;;;5016409;28;20552;-50
2023/08/20 12:23:22;;;;;;;9.68;8.65;;;;;;;;;;5015870;28;20283;-49
2023/08/20 12:25:51;;;;;;;10.93;9.25;;;;;;;;;;5015777;28;20184;-50
2023/08/20 12:28:17;;;;;;;13.38;9.80;;;;;;;;;;5027197;28;20177;-50
2023/08/20 12:30:43;;;;;;;11.52;9.20;;;;;;;;;;5015458;28;20580;-50
2023/08/20 12:33:09;;;;;;;9.77;8.45;;;;;;;;;;5016302;28;20184;-50
2023/08/20 12:35:36;;;;;;;14.77;9.60;;;;;;;;;;5015632;28;20176;-50
2023/08/20 12:38:01;;;;;;;10.02;9.02;;;;;;;;;;5016189;28;20291;-50
2023/08/20 12:40:28;;;;;;;9.68;8.68;;;;;;;;;;5016080;28;20259;-49
2023/08/20 12:42:54;;;;;;;11.95;8.32;;;;;;;;;;5014763;28;20498;-50
2023/08/20 12:45:20;;;;;;;13.02;9.20;;;;;;;;;;5015198;28;20595;-49
2023/08/20 12:47:46;;;;;;;11.00;8.98;;;;;;;;;;5015685;28;20223;-50
2023/08/20 12:50:14;;;;;;;10.43;9.25;;;;;;;;;;5015642;28;20180;-50
2023/08/20 12:52:40;;;;;;;11.13;8.57;;;;;;;;;;5015610;28;20556;-50
2023/08/20 12:55:06;;;;;;;10.50;8.82;;;;;;;;;;5014442;28;20282;-50
2023/08/20 12:57:34;;;;;;;9.65;8.63;;;;;;;;;;5014882;28;20200;-50
2023/08/20 13:00:00;;;;;;;10.15;8.43;;;;;;;;;;5015921;28;20195;-49
2023/08/20 13:02:26;;;;;;;11.00;9.52;;;;;;;;;;5016003;28;20929;-50
2023/08/20 13:04:52;;;;;;;10.23;8.88;;;;;;;;;;5014555;28;20187;-50
2023/08/20 13:07:18;;;;;;;10.13;8.25;;;;;;;;;;5014017;28;20195;-50
2023/08/20 13:09:45;;;;;;;11.52;8.90;;;;;;;;;;5015437;28;20176;-50
2023/08/20 13:12:12;;;;;;;10.60;8.45;;;;;;;;;;5015983;28;20795;-50
2023/08/20 13:14:39;;;;;;;14.90;8.82;;;;;;;;;;5031098;28;20618;-50
2023/08/20 13:17:05;;;;;;;13.10;9.02;;;;;;;;;;5015053;28;20585;-50
2023/08/20 13:19:31;;;;;;;9.27;8.02;;;;;;;;;;5015042;28;20459;-50
2023/08/20 13:21:57;;;;;;;9.38;8.32;;;;;;;;;;5015423;28;20279;-50
2023/08/20 13:24:23;;;;;;;9.10;8.18;;;;;;;;;;5015411;28;20177;-50
2023/08/20 13:26:49;;;;;;;9.63;8.57;;;;;;;;;;5014349;28;20231;-51
2023/08/20 13:29:15;;;;;;;10.55;8.25;;;;;;;;;;5013360;28;20176;-50
2023/08/20 13:31:41;;;;;;;10.07;8.90;;;;;;;;;;5015062;28;20207;-50
2023/08/20 13:34:07;;;;;;;9.93;8.55;;;;;;;;;;5030512;28;20192;-50
2023/08/20 13:36:33;;;;;;;8.75;7.82;;;;;;;;;;5013233;28;20176;-50
2023/08/20 13:38:59;;;;;;;10.27;8.35;;;;;;;;;;5015029;28;20177;-50
2023/08/20 13:41:25;;;;;;;9.68;8.65;;;;;;;;;;5015128;28;20242;-50
2023/08/20 13:43:51;;;;;;;10.05;8.25;;;;;;;;;;5029282;28;20191;-50
2023/08/20 13:46:17;;;;;;;9.80;7.82;;;;;;;;;;5013526;28;20547;-50
2023/08/20 13:48:42;;;;;;;12.10;8.73;;;;;;;;;;5018413;28;20185;-50
2023/08/20 13:51:08;;;;;;;10.15;8.23;;;;;;;;;;5013915;28;20227;-50
2023/08/20 13:53:35;;;;;;;11.02;7.88;;;;;;;;;;5014771;28;20211;-50
2023/08/20 13:56:01;;;;;;;10.10;7.63;;;;;;;;;;5018650;28;20196;-50
2023/08/20 13:58:27;;;;;;;10.43;7.97;;;;;;;;;;5018402;28;20192;-51
2023/08/20 14:00:53;;;;;;;10.57;7.88;;;;;;;;;;5018401;28;20191;-50
2023/08/20 14:03:19;;;;;;;9.00;8.10;;;;;;;;;;5018316;28;20216;-50
2023/08/20 14:05:45;;;;;;;9.95;7.75;;;;;;;;;;5018407;28;20230;-50
2023/08/20 14:08:11;;;;;;;11.48;8.38;;;;;;;;;;5018351;28;20192;-50
2023/08/20 14:10:37;;;;;;;10.27;8.25;;;;;;;;;;5018992;28;20180;-50
2023/08/20 14:13:03;;;;;;;9.38;8.00;;;;;;;;;;5018563;28;20295;-50
2023/08/20 14:15:29;;;;;;;11.40;7.40;;;;;;;;;;5018042;28;20196;-50
2023/08/20 14:17:55;;;;;;;9.10;7.80;;;;;;;;;;5034177;28;20199;-50
2023/08/20 14:20:21;;;;;;;11.07;7.60;;;;;;;;;;5017613;28;20195;-50
2023/08/20 14:22:47;;;;;;;10.05;7.88;;;;;;;;;;5018580;28;20218;-50
2023/08/20 14:25:13;;;;;;;9.57;8.15;;;;;;;;;;5018002;28;20200;-50
2023/08/20 14:27:39;;;;;;;8.40;7.22;;;;;;;;;;5018556;28;20215;-50
2023/08/20 14:30:07;;;;;;;10.75;8.05;;;;;;;;;;5017915;28;20254;-50
2023/08/20 14:32:33;;;;;;;10.70;8.32;;;;;;;;;;5018306;28;20187;-50